Time;durP1;ratioP1;P1;durP2;ratioP2;P2;SDS_P1;SDS_P2;PMS_P1;PMS_P2;Temp;Humidity;BMP_temperature;BMP_pressure;BME280_temperature;BME280_humidity;BME280_pressure;Samples;Min_cycle;Max_cycle;Signal;HPM_P1;HPM_P2
2020/12/21 00:01:20;;;;;;;0.30;0.30;;;7.80;99.90;;;;;;5032842;28;20209;-71
2020/12/21 00:03:46;;;;;;;0.40;0.40;;;7.80;99.90;;;;;;5033824;28;20231;-71
2020/12/21 00:06:13;;;;;;;0.40;0.40;;;7.90;99.90;;;;;;5033460;28;20225;-72
2020/12/21 00:08:39;;;;;;;0.30;0.30;;;7.80;99.90;;;;;;5037632;28;20417;-71
2020/12/21 00:11:05;;;;;;;0.30;0.20;;;7.70;99.90;;;;;;5033052;28;20526;-70
2020/12/21 00:13:30;;;;;;;0.60;0.60;;;7.70;99.90;;;;;;5036559;28;20419;-72
2020/12/21 00:15:56;;;;;;;0.30;0.30;;;7.70;99.90;;;;;;5033428;28;20682;-71
2020/12/21 00:18:22;;;;;;;1.73;1.67;;;7.70;99.90;;;;;;5033245;28;20614;-71
2020/12/21 00:20:48;;;;;;;0.30;0.30;;;7.70;99.90;;;;;;5031662;28;20176;-71
2020/12/21 00:23:15;;;;;;;0.30;0.30;;;7.70;99.90;;;;;;5031971;28;20195;-72
2020/12/21 00:25:40;;;;;;;0.30;0.20;;;7.70;99.90;;;;;;5050255;28;20262;-70
2020/12/21 00:28:06;;;;;;;0.30;0.20;;;7.70;99.90;;;;;;5053124;28;20703;-72
2020/12/21 00:30:31;;;;;;;0.30;0.30;;;7.70;99.90;;;;;;5033959;28;20172;-74
2020/12/21 00:32:57;;;;;;;0.40;0.40;;;7.70;99.90;;;;;;5031850;28;20227;-72
2020/12/21 00:35:23;;;;;;;0.63;0.63;;;7.80;99.90;;;;;;5032901;28;20650;-72
2020/12/21 00:37:48;;;;;;;0.30;0.30;;;7.80;99.90;;;;;;5033284;28;20187;-72
2020/12/21 00:40:14;;;;;;;0.30;0.20;;;7.90;99.90;;;;;;5032452;28;20673;-72
2020/12/21 00:42:43;;;;;;;1.90;1.77;;;7.90;99.90;;;;;;5032884;28;20298;-72
2020/12/21 00:45:09;;;;;;;0.30;0.20;;;7.90;99.90;;;;;;5033126;28;20287;-71
2020/12/21 00:47:34;;;;;;;0.30;0.30;;;7.80;99.90;;;;;;5036017;28;20267;-70
2020/12/21 00:50:00;;;;;;;0.50;0.50;;;7.80;99.90;;;;;;5036614;28;20182;-71
2020/12/21 00:52:26;;;;;;;0.30;0.30;;;7.80;99.90;;;;;;5036956;28;20211;-71
2020/12/21 00:54:51;;;;;;;0.40;0.40;;;7.80;99.90;;;;;;5036753;28;20180;-70
2020/12/21 00:57:17;;;;;;;0.30;0.30;;;7.70;99.90;;;;;;5037127;28;20189;-70
2020/12/21 00:59:42;;;;;;;0.30;0.30;;;7.60;99.90;;;;;;5036439;28;20307;-72
2020/12/21 01:02:08;;;;;;;0.93;0.87;;;7.60;99.90;;;;;;5036627;28;20576;-71
2020/12/21 01:04:34;;;;;;;0.47;0.47;;;7.60;99.90;;;;;;5036523;28;20542;-72
2020/12/21 01:06:59;;;;;;;1.57;1.57;;;7.50;99.90;;;;;;5037005;28;20172;-72
2020/12/21 01:09:25;;;;;;;0.30;0.20;;;7.50;99.90;;;;;;5036618;28;20180;-71
2020/12/21 01:11:54;;;;;;;2.43;0.73;;;7.40;99.90;;;;;;5043232;28;20204;-71
2020/12/21 01:14:20;;;;;;;0.32;0.32;;;7.30;99.90;;;;;;5048853;28;20220;-71
2020/12/21 01:16:46;;;;;;;0.30;0.20;;;7.30;99.90;;;;;;5037054;28;20174;-72
2020/12/21 01:19:12;;;;;;;0.30;0.30;;;7.20;99.90;;;;;;5036373;28;20472;-72
2020/12/21 01:21:37;;;;;;;1.13;0.70;;;7.20;99.90;;;;;;5036449;28;20253;-72
2020/12/21 01:24:03;;;;;;;0.80;0.80;;;7.20;99.90;;;;;;5036320;28;20421;-70
2020/12/21 01:26:30;;;;;;;0.30;0.30;;;7.20;99.90;;;;;;5035069;28;20209;-73
2020/12/21 01:28:56;;;;;;;1.40;0.95;;;7.20;99.90;;;;;;5036072;28;20261;-73
2020/12/21 01:31:22;;;;;;;0.30;0.30;;;7.20;99.90;;;;;;5035988;28;20709;-73
2020/12/21 01:33:49;;;;;;;0.40;0.40;;;7.20;99.90;;;;;;5036063;28;20671;-71
2020/12/21 01:36:16;;;;;;;0.30;0.30;;;7.20;99.90;;;;;;5036373;28;20628;-71
2020/12/21 01:38:43;;;;;;;0.45;0.43;;;7.20;99.90;;;;;;5036029;28;20178;-73
2020/12/21 01:41:09;;;;;;;0.70;0.70;;;7.20;99.90;;;;;;5017577;28;20613;-70
2020/12/21 01:43:34;;;;;;;0.40;0.40;;;7.20;99.90;;;;;;5036262;28;20175;-71
2020/12/21 01:46:16;;;;;;;0.30;0.30;;;7.20;99.90;;;;;;5036814;28;20179;-72
2020/12/21 01:48:44;;;;;;;0.30;0.30;;;7.20;99.90;;;;;;5035946;28;20650;-73
2020/12/21 01:51:24;;;;;;;0.95;0.95;;;7.20;99.90;;;;;;5035658;28;20183;-71
2020/12/21 01:53:51;;;;;;;1.95;1.85;;;7.20;99.90;;;;;;5035638;28;20256;-73
2020/12/21 01:56:19;;;;;;;0.30;0.30;;;7.10;99.90;;;;;;5035693;28;20716;-73
2020/12/21 01:58:46;;;;;;;0.35;0.35;;;7.10;99.90;;;;;;5035935;28;20205;-71
2020/12/21 02:01:14;;;;;;;0.35;0.35;;;7.10;99.90;;;;;;5035438;28;20558;-71
2020/12/21 02:03:43;;;;;;;0.70;0.70;;;7.10;99.90;;;;;;5035720;28;20175;-71
2020/12/21 02:06:10;;;;;;;0.55;0.55;;;7.10;99.90;;;;;;5035337;28;20188;-71
2020/12/21 02:08:36;;;;;;;0.30;0.30;;;7.00;99.90;;;;;;5035757;28;20167;-72
2020/12/21 02:11:02;;;;;;;0.30;0.30;;;7.00;99.90;;;;;;5034931;28;20641;-71
2020/12/21 02:13:28;;;;;;;0.30;0.30;;;6.90;99.90;;;;;;5035772;28;20184;-70
2020/12/21 02:15:54;;;;;;;0.30;0.30;;;6.90;99.90;;;;;;5034086;28;20174;-71
2020/12/21 02:18:20;;;;;;;3.17;2.95;;;6.70;99.90;;;;;;5035705;28;20167;-73
2020/12/21 02:20:46;;;;;;;0.60;0.60;;;6.70;99.90;;;;;;5033791;28;20166;-71
2020/12/21 02:23:11;;;;;;;2.10;1.43;;;6.60;99.90;;;;;;5035145;28;20187;-73
2020/12/21 02:25:37;;;;;;;0.30;0.30;;;6.60;99.90;;;;;;5035446;28;20166;-71
2020/12/21 02:28:03;;;;;;;0.30;0.30;;;6.60;99.90;;;;;;5035281;28;20185;-72
2020/12/21 02:30:29;;;;;;;0.30;0.20;;;6.50;99.90;;;;;;5035181;28;20166;-72
2020/12/21 02:32:55;;;;;;;0.30;0.30;;;6.50;99.90;;;;;;5044246;28;20205;-71
2020/12/21 02:35:22;;;;;;;0.30;0.30;;;6.40;99.90;;;;;;5052178;28;20181;-72
2020/12/21 02:37:48;;;;;;;0.70;0.70;;;6.40;99.90;;;;;;5039205;28;20173;-73
2020/12/21 02:40:13;;;;;;;0.30;0.30;;;6.40;99.90;;;;;;5034739;28;20548;-72
2020/12/21 02:42:39;;;;;;;0.47;0.47;;;6.30;99.90;;;;;;5034664;28;20217;-72
2020/12/21 02:45:05;;;;;;;0.77;0.77;;;6.30;99.90;;;;;;5035147;28;20162;-71
2020/12/21 02:47:30;;;;;;;0.77;0.77;;;6.20;99.90;;;;;;5042673;28;20180;-72
2020/12/21 02:49:56;;;;;;;0.50;0.50;;;6.10;99.90;;;;;;5054580;28;20174;-72
2020/12/21 02:52:22;;;;;;;0.30;0.30;;;6.00;99.90;;;;;;5042295;28;20213;-72
2020/12/21 02:54:48;;;;;;;0.77;0.77;;;6.00;99.90;;;;;;5040487;28;20189;-73
2020/12/21 02:57:14;;;;;;;0.30;0.30;;;5.90;99.90;;;;;;5054955;28;20415;-72
2020/12/21 02:59:40;;;;;;;0.50;0.50;;;5.80;99.90;;;;;;5045098;28;20216;-76
2020/12/21 03:02:06;;;;;;;2.78;2.58;;;5.80;99.90;;;;;;5034526;28;20643;-71
2020/12/21 03:04:33;;;;;;;0.50;0.50;;;5.80;99.90;;;;;;5034280;28;20169;-72
2020/12/21 03:07:00;;;;;;;0.40;0.40;;;5.80;99.90;;;;;;5034809;28;20599;-72
2020/12/21 03:09:25;;;;;;;0.30;0.20;;;5.80;99.90;;;;;;5033634;28;20174;-73
2020/12/21 03:11:51;;;;;;;0.40;0.40;;;5.80;99.90;;;;;;5034197;28;20244;-73
2020/12/21 03:14:17;;;;;;;0.30;0.30;;;5.80;99.90;;;;;;5034276;28;20688;-71
2020/12/21 03:16:42;;;;;;;0.40;0.40;;;5.80;99.90;;;;;;5033186;28;20265;-71
2020/12/21 03:19:08;;;;;;;0.70;0.70;;;5.80;99.90;;;;;;5034523;28;20178;-70
2020/12/21 03:21:34;;;;;;;0.30;0.30;;;5.70;99.90;;;;;;5033797;28;20202;-71
2020/12/21 03:23:59;;;;;;;0.30;0.30;;;5.70;99.90;;;;;;5048965;28;20178;-70
2020/12/21 03:26:26;;;;;;;0.30;0.30;;;5.70;99.90;;;;;;5033976;28;20559;-70
2020/12/21 03:28:51;;;;;;;0.30;0.20;;;5.80;99.90;;;;;;5034083;28;20165;-72
2020/12/21 03:31:17;;;;;;;0.50;0.50;;;5.70;99.90;;;;;;5033685;28;20170;-72
2020/12/21 03:33:43;;;;;;;0.40;0.40;;;5.70;99.90;;;;;;5033982;28;20170;-72
2020/12/21 03:36:08;;;;;;;0.33;0.33;;;5.70;99.90;;;;;;5033854;28;20181;-72
2020/12/21 03:38:35;;;;;;;0.30;0.30;;;5.70;99.90;;;;;;5034067;28;20181;-73
2020/12/21 03:41:00;;;;;;;0.30;0.30;;;5.70;99.90;;;;;;5049954;28;20631;-70
2020/12/21 03:43:26;;;;;;;0.30;0.23;;;5.60;99.90;;;;;;5052741;28;20180;-73
2020/12/21 03:45:52;;;;;;;0.30;0.30;;;5.60;99.90;;;;;;5037549;28;20197;-70
2020/12/21 03:48:17;;;;;;;0.50;0.50;;;5.70;99.90;;;;;;5041269;28;20175;-72
2020/12/21 03:50:43;;;;;;;0.30;0.30;;;5.60;99.90;;;;;;5037945;28;20201;-72
2020/12/21 03:53:09;;;;;;;1.42;1.33;;;5.60;99.90;;;;;;5040302;28;20255;-72
2020/12/21 03:55:35;;;;;;;0.30;0.30;;;5.60;99.90;;;;;;5038786;28;20174;-73
2020/12/21 03:58:01;;;;;;;0.50;0.50;;;5.60;99.90;;;;;;5033856;28;20201;-72
2020/12/21 04:00:26;;;;;;;0.30;0.30;;;5.60;99.90;;;;;;5034340;28;20548;-72
2020/12/21 04:02:52;;;;;;;0.40;0.40;;;5.50;99.90;;;;;;5032286;28;20281;-73
2020/12/21 04:05:18;;;;;;;0.57;0.57;;;5.50;99.90;;;;;;5033307;28;20690;-72
2020/12/21 04:07:43;;;;;;;0.50;0.50;;;5.40;99.90;;;;;;5032434;28;20581;-72
2020/12/21 04:10:09;;;;;;;0.30;0.30;;;5.40;99.90;;;;;;5033155;28;20170;-72
2020/12/21 04:12:35;;;;;;;0.70;0.70;;;5.40;99.90;;;;;;5033482;28;20190;-71
2020/12/21 04:15:02;;;;;;;0.50;0.50;;;5.30;99.90;;;;;;5035140;28;20177;-71
2020/12/21 04:17:28;;;;;;;0.50;0.50;;;5.30;99.90;;;;;;5033631;28;20174;-71
2020/12/21 04:19:54;;;;;;;0.77;0.77;;;5.30;99.90;;;;;;5032585;28;20170;-71
2020/12/21 04:22:19;;;;;;;0.30;0.30;;;5.30;99.90;;;;;;5032959;28;20692;-72
2020/12/21 04:24:45;;;;;;;0.30;0.30;;;5.30;99.90;;;;;;5032891;28;20213;-71
2020/12/21 04:27:11;;;;;;;0.30;0.30;;;5.40;99.90;;;;;;5033415;28;20166;-71
2020/12/21 04:29:37;;;;;;;0.30;0.30;;;5.30;99.90;;;;;;5033852;28;20640;-73
2020/12/21 04:32:03;;;;;;;0.30;0.30;;;5.30;99.90;;;;;;5033080;28;20949;-71
2020/12/21 04:34:29;;;;;;;0.30;0.30;;;5.30;99.90;;;;;;5032919;28;20185;-71
2020/12/21 04:36:54;;;;;;;0.30;0.30;;;5.20;99.90;;;;;;5033192;28;20178;-72
2020/12/21 04:39:23;;;;;;;1.23;1.17;;;5.20;99.90;;;;;;5032986;28;20317;-71
2020/12/21 04:41:57;;;;;;;0.65;0.65;;;5.10;99.90;;;;;;5032855;28;20209;-72
2020/12/21 04:44:24;;;;;;;0.30;0.30;;;5.10;99.90;;;;;;5033075;28;20264;-72
2020/12/21 04:46:57;;;;;;;0.40;0.40;;;5.10;99.90;;;;;;5033094;28;20166;-72
2020/12/21 04:49:23;;;;;;;0.30;0.30;;;5.10;99.90;;;;;;5049199;28;20261;-71
2020/12/21 04:51:50;;;;;;;0.50;0.50;;;5.10;99.90;;;;;;5032838;28;20291;-72
2020/12/21 04:54:20;;;;;;;0.73;0.73;;;5.10;99.90;;;;;;5032818;28;20209;-73
2020/12/21 04:56:45;;;;;;;0.50;0.50;;;5.10;99.90;;;;;;5033142;28;20580;-73
2020/12/21 04:59:12;;;;;;;0.30;0.30;;;5.10;99.90;;;;;;5033294;28;20200;-71
2020/12/21 05:01:39;;;;;;;0.30;0.30;;;5.20;99.90;;;;;;5031255;28;20209;-72
2020/12/21 05:04:05;;;;;;;0.93;0.93;;;5.20;99.90;;;;;;5032719;28;20193;-72
2020/12/21 05:06:30;;;;;;;1.73;1.63;;;5.20;99.90;;;;;;5033005;28;20224;-73
2020/12/21 05:09:08;;;;;;;0.30;0.30;;;5.30;99.90;;;;;;5032475;28;20178;-73
2020/12/21 05:11:35;;;;;;;0.30;0.20;;;5.30;99.90;;;;;;5032352;28;20220;-73
2020/12/21 05:14:09;;;;;;;0.30;0.30;;;5.30;99.90;;;;;;5036251;28;20528;-71
2020/12/21 05:16:35;;;;;;;0.30;0.30;;;5.30;99.90;;;;;;5032747;28;20280;-71
2020/12/21 05:19:01;;;;;;;0.30;0.30;;;5.40;99.90;;;;;;5032472;28;20178;-72
2020/12/21 05:21:28;;;;;;;0.30;0.30;;;5.40;99.90;;;;;;5032302;28;20240;-72
2020/12/21 05:24:01;;;;;;;0.30;0.30;;;5.40;99.90;;;;;;5032608;28;20196;-72
2020/12/21 05:26:29;;;;;;;0.30;0.30;;;5.50;99.90;;;;;;5032587;28;20220;-72
2020/12/21 05:28:56;;;;;;;0.98;0.98;;;5.60;99.90;;;;;;5039196;28;20177;-72
2020/12/21 05:31:22;;;;;;;0.55;0.55;;;5.60;99.90;;;;;;5032630;28;20332;-71
2020/12/21 05:33:48;;;;;;;0.30;0.28;;;5.60;99.90;;;;;;5036228;28;20174;-71
2020/12/21 05:36:16;;;;;;;0.30;0.30;;;5.70;99.90;;;;;;5034993;28;20178;-71
2020/12/21 05:38:43;;;;;;;0.30;0.30;;;5.70;99.90;;;;;;5036046;28;20181;-72
2020/12/21 05:41:17;;;;;;;0.35;0.35;;;5.70;99.90;;;;;;5035873;28;20308;-72
2020/12/21 05:43:45;;;;;;;0.32;0.32;;;5.60;99.90;;;;;;5036134;28;20166;-71
2020/12/21 05:46:13;;;;;;;0.30;0.30;;;5.70;99.90;;;;;;5035817;28;20216;-72
2020/12/21 05:48:55;;;;;;;0.50;0.50;;;5.70;99.90;;;;;;5043960;28;20201;-72
2020/12/21 05:51:30;;;;;;;0.30;0.30;;;5.70;99.90;;;;;;5035644;28;20190;-72
2020/12/21 05:53:58;;;;;;;0.30;0.30;;;5.70;99.90;;;;;;5035350;28;20193;-71
2020/12/21 05:56:25;;;;;;;0.32;0.32;;;5.60;99.90;;;;;;5034650;28;20182;-71
2020/12/21 05:58:54;;;;;;;0.60;0.60;;;5.70;99.90;;;;;;5036675;28;20246;-72
2020/12/21 06:01:20;;;;;;;0.50;0.50;;;5.60;99.90;;;;;;5035430;28;20209;-71
2020/12/21 06:03:53;;;;;;;1.80;1.08;;;5.60;99.90;;;;;;5035815;28;20170;-72
2020/12/21 06:06:26;;;;;;;0.30;0.30;;;5.50;99.90;;;;;;5035872;28;20173;-73
2020/12/21 06:09:05;;;;;;;0.30;0.30;;;5.50;99.90;;;;;;5035408;28;20173;-72
2020/12/21 06:11:32;;;;;;;3.35;1.25;;;5.50;99.90;;;;;;5035470;28;20680;-73
2020/12/21 06:14:03;;;;;;;0.30;0.30;;;5.40;99.90;;;;;;5044228;28;20182;-73
2020/12/21 06:16:31;;;;;;;0.30;0.30;;;5.50;99.90;;;;;;5034787;28;20166;-71
2020/12/21 06:19:24;;;;;;;0.88;0.85;;;5.50;99.90;;;;;;5035172;28;20231;-73
2020/12/21 06:21:53;;;;;;;0.30;0.28;;;5.60;99.90;;;;;;5035064;28;20289;-72
2020/12/21 06:24:27;;;;;;;0.30;0.30;;;5.60;99.90;;;;;;5033000;28;20178;-72
2020/12/21 06:26:54;;;;;;;0.30;0.20;;;5.60;99.90;;;;;;5036377;28;20166;-71
2020/12/21 06:29:25;;;;;;;0.30;0.30;;;5.60;99.90;;;;;;5045443;28;20181;-70
2020/12/21 06:32:04;;;;;;;0.30;0.30;;;5.60;99.90;;;;;;5034555;28;20225;-71
2020/12/21 06:34:29;;;;;;;0.30;0.30;;;5.50;99.90;;;;;;5035005;28;20223;-71
2020/12/21 06:37:04;;;;;;;0.30;0.30;;;5.50;99.90;;;;;;5046784;28;20189;-72
2020/12/21 06:39:31;;;;;;;0.30;0.30;;;5.50;99.90;;;;;;5046482;28;20178;-74
2020/12/21 06:42:09;;;;;;;0.30;0.30;;;5.50;99.90;;;;;;5034835;28;20612;-70
2020/12/21 06:44:39;;;;;;;0.57;0.57;;;5.40;99.90;;;;;;5034218;28;20235;-72
2020/12/21 06:47:06;;;;;;;0.30;0.30;;;5.40;99.90;;;;;;5033808;28;20533;-70
2020/12/21 06:49:32;;;;;;;1.48;1.42;;;5.40;99.90;;;;;;5033280;28;20170;-73
2020/12/21 06:51:58;;;;;;;1.10;1.05;;;5.40;99.90;;;;;;5047951;28;20204;-73
2020/12/21 06:54:23;;;;;;;0.73;0.73;;;5.40;99.90;;;;;;5042621;28;20640;-72
2020/12/21 06:56:50;;;;;;;0.30;0.30;;;5.30;99.90;;;;;;5054840;28;20181;-71
2020/12/21 06:59:16;;;;;;;0.30;0.30;;;5.30;99.90;;;;;;5037561;28;20174;-70
2020/12/21 07:01:47;;;;;;;0.40;0.40;;;5.20;99.90;;;;;;5034113;28;20259;-72
2020/12/21 07:04:17;;;;;;;0.30;0.30;;;5.20;99.90;;;;;;5034742;28;20209;-74
2020/12/21 07:06:45;;;;;;;0.55;0.55;;;5.20;99.90;;;;;;5046421;28;20556;-71
2020/12/21 07:09:12;;;;;;;1.05;1.05;;;5.20;99.90;;;;;;5039965;28;20204;-72
2020/12/21 07:11:40;;;;;;;0.30;0.30;;;5.20;99.90;;;;;;5053346;28;20213;-73
2020/12/21 07:14:06;;;;;;;0.55;0.55;;;5.20;99.90;;;;;;5037962;28;20257;-71
2020/12/21 07:16:32;;;;;;;0.47;0.47;;;5.20;99.90;;;;;;5033656;28;20535;-73
2020/12/21 07:18:58;;;;;;;0.60;0.60;;;5.20;99.90;;;;;;5033961;28;20556;-74
2020/12/21 07:21:23;;;;;;;1.47;1.47;;;5.20;99.90;;;;;;5033664;28;20206;-74
2020/12/21 07:23:49;;;;;;;0.30;0.30;;;5.20;99.90;;;;;;5033717;28;20174;-74
2020/12/21 07:26:15;;;;;;;0.30;0.30;;;5.20;99.90;;;;;;5034072;28;20412;-74
2020/12/21 07:28:46;;;;;;;1.10;1.10;;;5.20;99.90;;;;;;5033632;28;20216;-74
2020/12/21 07:31:11;;;;;;;0.30;0.30;;;5.10;99.90;;;;;;5032867;28;20201;-75
2020/12/21 07:33:55;;;;;;;0.80;0.80;;;5.10;99.90;;;;;;5034090;28;20680;-75
2020/12/21 07:36:27;;;;;;;1.02;0.93;;;5.10;99.90;;;;;;5033908;28;20178;-77
2020/12/21 07:39:03;;;;;;;0.30;0.30;;;5.20;99.90;;;;;;5033448;28;20239;-74
2020/12/21 07:41:32;;;;;;;0.30;0.30;;;5.20;99.90;;;;;;5031904;28;20686;-74
2020/12/21 07:44:16;;;;;;;0.38;0.38;;;5.20;99.90;;;;;;5033474;28;20185;-74
2020/12/21 07:47:03;;;;;;;0.30;0.30;;;5.20;99.90;;;;;;5029392;28;20184;-74
2020/12/21 07:49:36;;;;;;;0.30;0.20;;;5.20;99.90;;;;;;5032163;28;20170;-74
2020/12/21 07:52:04;;;;;;;0.40;0.40;;;5.10;99.90;;;;;;5032005;28;20201;-73
2020/12/21 07:54:48;;;;;;;0.30;0.30;;;5.20;99.90;;;;;;5036193;28;20256;-73
2020/12/21 07:57:17;;;;;;;1.00;0.73;;;5.20;99.90;;;;;;5033736;28;20173;-73
2020/12/21 07:59:43;;;;;;;0.30;0.30;;;5.20;99.90;;;;;;5040888;28;20252;-73
2020/12/21 08:02:10;;;;;;;0.30;0.30;;;5.30;99.90;;;;;;5032455;28;20201;-74
2020/12/21 08:04:36;;;;;;;0.30;0.30;;;5.30;99.90;;;;;;5033101;28;20249;-72
2020/12/21 08:07:09;;;;;;;0.85;0.85;;;5.20;99.90;;;;;;5033169;28;20171;-74
2020/12/21 08:09:38;;;;;;;0.50;0.50;;;5.30;99.90;;;;;;5031792;28;20170;-72
2020/12/21 08:12:17;;;;;;;1.13;1.13;;;5.30;99.90;;;;;;5033329;28;20190;-72
2020/12/21 08:14:44;;;;;;;0.30;0.30;;;5.30;99.90;;;;;;5037728;28;20539;-74
2020/12/21 08:17:19;;;;;;;0.30;0.30;;;5.40;99.90;;;;;;5032780;28;20593;-74
2020/12/21 08:19:54;;;;;;;0.30;0.20;;;5.40;99.90;;;;;;5032570;28;20220;-74
2020/12/21 08:22:26;;;;;;;0.30;0.30;;;5.40;99.90;;;;;;5032725;28;20228;-74
2020/12/21 08:25:12;;;;;;;0.30;0.30;;;5.50;99.90;;;;;;5015201;28;20178;-73
2020/12/21 08:27:51;;;;;;;0.32;0.32;;;5.50;99.90;;;;;;5033314;28;20165;-77
2020/12/21 08:30:19;;;;;;;0.30;0.25;;;5.50;99.90;;;;;;5032620;28;20192;-75
2020/12/21 08:32:45;;;;;;;0.30;0.20;;;5.60;99.90;;;;;;5032994;28;20256;-74
2020/12/21 08:35:11;;;;;;;0.30;0.30;;;5.60;99.90;;;;;;5041157;28;20166;-74
2020/12/21 08:37:38;;;;;;;0.30;0.30;;;5.70;99.90;;;;;;5035563;28;20176;-75
2020/12/21 08:40:16;;;;;;;0.88;0.88;;;5.80;99.90;;;;;;5032094;28;20273;-74
2020/12/21 08:42:42;;;;;;;0.30;0.30;;;5.90;99.90;;;;;;5032673;28;20566;-74
2020/12/21 08:45:09;;;;;;;2.13;2.03;;;6.00;99.90;;;;;;5032396;28;20165;-74
2020/12/21 08:47:39;;;;;;;0.30;0.30;;;6.00;99.90;;;;;;5031801;28;20167;-73
2020/12/21 08:50:05;;;;;;;0.77;0.77;;;6.10;99.90;;;;;;5046105;28;20170;-74
2020/12/21 08:52:31;;;;;;;0.30;0.20;;;6.20;99.90;;;;;;5042760;28;20263;-73
2020/12/21 08:54:57;;;;;;;0.30;0.20;;;6.30;99.90;;;;;;5032908;28;20436;-74
2020/12/21 08:57:22;;;;;;;0.30;0.30;;;6.30;99.90;;;;;;5032626;28;20201;-75
2020/12/21 08:59:48;;;;;;;0.30;0.30;;;6.40;99.90;;;;;;5032609;28;20264;-75
2020/12/21 09:02:13;;;;;;;0.40;0.40;;;6.50;99.90;;;;;;5032347;28;20209;-75
2020/12/21 09:04:40;;;;;;;0.40;0.40;;;6.50;99.90;;;;;;5043885;28;20224;-75
2020/12/21 09:07:06;;;;;;;0.30;0.30;;;6.60;99.90;;;;;;5047976;28;20182;-73
2020/12/21 09:09:31;;;;;;;1.37;1.00;;;6.70;99.90;;;;;;5036484;28;20189;-75
2020/12/21 09:11:57;;;;;;;0.40;0.40;;;6.70;99.90;;;;;;5036682;28;20199;-75
2020/12/21 09:14:26;;;;;;;1.03;1.03;;;6.70;99.90;;;;;;5056788;28;20172;-77
2020/12/21 09:16:52;;;;;;;0.40;0.40;;;6.80;99.90;;;;;;5054410;28;20207;-78
2020/12/21 09:19:18;;;;;;;1.27;1.23;;;6.90;99.90;;;;;;5036587;28;20549;-84
2020/12/21 09:21:44;;;;;;;0.30;0.30;;;7.10;99.90;;;;;;5036095;28;20456;-75
2020/12/21 09:24:10;;;;;;;0.30;0.30;;;7.10;99.90;;;;;;5036342;28;20183;-81
2020/12/21 09:26:36;;;;;;;0.30;0.30;;;7.20;99.90;;;;;;5038849;28;20510;-75
2020/12/21 09:29:02;;;;;;;0.30;0.30;;;7.20;99.90;;;;;;5036384;28;20257;-78
2020/12/21 09:31:28;;;;;;;0.50;0.50;;;7.20;99.90;;;;;;5035679;28;20462;-76
2020/12/21 09:33:54;;;;;;;0.43;0.43;;;7.20;99.90;;;;;;5035795;28;20934;-77
2020/12/21 09:36:20;;;;;;;1.60;1.05;;;7.20;99.90;;;;;;5035989;28;20185;-79
2020/12/21 09:38:46;;;;;;;0.63;0.63;;;7.30;99.90;;;;;;5035880;28;20544;-77
2020/12/21 09:41:18;;;;;;;0.30;0.30;;;7.40;99.90;;;;;;5035604;28;20206;-75
2020/12/21 09:43:48;;;;;;;0.30;0.30;;;7.40;99.90;;;;;;5044128;28;20364;-73
2020/12/21 09:46:22;;;;;;;0.75;0.75;;;7.40;99.90;;;;;;5055768;28;20589;-76
2020/12/21 09:48:49;;;;;;;1.38;1.38;;;7.50;99.90;;;;;;5039082;28;20186;-71
2020/12/21 09:51:15;;;;;;;2.85;2.65;;;7.50;99.90;;;;;;5035264;28;20175;-74
2020/12/21 09:53:41;;;;;;;0.30;0.30;;;7.50;99.90;;;;;;5035161;28;20195;-71
2020/12/21 09:56:15;;;;;;;0.70;0.70;;;7.50;99.90;;;;;;5035414;28;20182;-75
2020/12/21 09:58:41;;;;;;;0.70;0.70;;;7.50;99.90;;;;;;5035516;28;20437;-72
2020/12/21 10:01:08;;;;;;;0.50;0.50;;;7.40;99.90;;;;;;5034695;28;20171;-73
2020/12/21 10:03:38;;;;;;;0.30;0.30;;;7.50;99.90;;;;;;5034105;28;20174;-72
2020/12/21 10:06:06;;;;;;;0.30;0.30;;;7.50;99.90;;;;;;5034461;28;20701;-70
2020/12/21 10:08:32;;;;;;;0.30;0.20;;;7.60;99.90;;;;;;5035486;28;20606;-71
2020/12/21 10:10:57;;;;;;;0.50;0.50;;;7.70;99.90;;;;;;5035261;28;20263;-71
2020/12/21 10:13:23;;;;;;;0.30;0.20;;;7.80;99.90;;;;;;5047363;28;20283;-71
2020/12/21 10:15:48;;;;;;;0.70;0.60;;;7.70;99.90;;;;;;5055402;28;20171;-69
2020/12/21 10:18:14;;;;;;;0.30;0.20;;;7.70;99.90;;;;;;5037425;28;20183;-70
2020/12/21 10:20:40;;;;;;;0.67;0.67;;;7.70;99.90;;;;;;5034934;28;20169;-70
2020/12/21 10:23:05;;;;;;;0.30;0.30;;;7.70;99.90;;;;;;5035096;28;20664;-70
2020/12/21 10:25:31;;;;;;;0.53;0.53;;;7.70;99.90;;;;;;5035338;28;20166;-70
2020/12/21 10:27:57;;;;;;;0.67;0.57;;;7.80;99.90;;;;;;5035716;28;20196;-70
2020/12/21 10:30:22;;;;;;;2.77;2.13;;;7.90;99.90;;;;;;5034907;28;20162;-69
2020/12/21 10:32:48;;;;;;;0.30;0.30;;;7.90;99.90;;;;;;5049608;28;20203;-70
2020/12/21 10:35:14;;;;;;;0.70;0.70;;;8.00;99.90;;;;;;5054661;28;20189;-70
2020/12/21 10:37:39;;;;;;;0.30;0.30;;;8.00;99.90;;;;;;5055072;28;20173;-70
2020/12/21 10:40:06;;;;;;;0.30;0.30;;;8.10;99.90;;;;;;5054826;28;20262;-70
2020/12/21 10:42:32;;;;;;;0.30;0.30;;;8.10;99.90;;;;;;5054814;28;20342;-70
2020/12/21 10:44:57;;;;;;;0.33;0.33;;;8.20;99.90;;;;;;5054964;28;20255;-70
2020/12/21 10:47:23;;;;;;;0.30;0.30;;;8.20;99.90;;;;;;5041171;28;20417;-70
2020/12/21 10:49:49;;;;;;;0.30;0.20;;;8.20;99.90;;;;;;5034685;28;20178;-71
2020/12/21 10:52:14;;;;;;;0.30;0.30;;;8.20;99.90;;;;;;5034559;28;20207;-71
2020/12/21 10:54:40;;;;;;;0.30;0.30;;;8.10;99.90;;;;;;5035079;28;20597;-70
2020/12/21 10:57:06;;;;;;;0.40;0.40;;;8.20;99.90;;;;;;5034814;28;20177;-70
2020/12/21 10:59:33;;;;;;;0.80;0.77;;;8.20;99.90;;;;;;5033794;28;20502;-70
2020/12/21 11:01:59;;;;;;;0.30;0.30;;;8.20;99.90;;;;;;5034264;28;20467;-69
2020/12/21 11:04:24;;;;;;;0.30;0.30;;;8.20;99.90;;;;;;5034685;28;20170;-71
2020/12/21 11:06:50;;;;;;;0.50;0.50;;;8.30;99.90;;;;;;5034702;28;20169;-70
2020/12/21 11:09:16;;;;;;;0.43;0.43;;;8.30;99.90;;;;;;5034324;28;20174;-70
2020/12/21 11:11:41;;;;;;;0.30;0.30;;;8.40;99.90;;;;;;5034124;28;20193;-72
2020/12/21 11:14:08;;;;;;;0.30;0.30;;;8.50;99.90;;;;;;5033266;28;20193;-70
2020/12/21 11:16:34;;;;;;;0.30;0.20;;;8.60;99.90;;;;;;5044747;28;20260;-70
2020/12/21 11:19:00;;;;;;;0.40;0.40;;;8.70;99.90;;;;;;5054083;28;20178;-70
2020/12/21 11:21:26;;;;;;;1.00;1.00;;;8.70;99.90;;;;;;5053826;28;20202;-70
2020/12/21 11:23:52;;;;;;;1.03;0.83;;;8.80;99.90;;;;;;5052770;28;20940;-70
2020/12/21 11:26:19;;;;;;;0.30;0.30;;;8.80;99.90;;;;;;5053932;28;20651;-74
2020/12/21 11:28:48;;;;;;;0.73;0.73;;;8.80;99.90;;;;;;5034695;28;20184;-74
2020/12/21 11:31:17;;;;;;;0.40;0.40;;;8.80;99.90;;;;;;5043020;28;20169;-74
2020/12/21 11:33:44;;;;;;;0.40;0.40;;;8.90;99.90;;;;;;5053987;28;20175;-71
2020/12/21 11:36:10;;;;;;;0.40;0.40;;;8.90;99.90;;;;;;5038865;28;20245;-71
2020/12/21 11:38:36;;;;;;;0.30;0.30;;;8.90;99.90;;;;;;5033918;28;20267;-71
2020/12/21 11:41:02;;;;;;;0.30;0.30;;;8.90;99.90;;;;;;5032751;28;20225;-70
2020/12/21 11:43:27;;;;;;;0.30;0.30;;;8.90;99.90;;;;;;5033563;28;20182;-71
2020/12/21 11:45:53;;;;;;;0.30;0.30;;;8.80;99.90;;;;;;5033835;28;20174;-72
2020/12/21 11:48:19;;;;;;;0.30;0.30;;;8.80;99.90;;;;;;5033735;28;20198;-70
2020/12/21 11:50:45;;;;;;;0.30;0.20;;;8.80;99.90;;;;;;5033589;28;20174;-73
2020/12/21 11:53:10;;;;;;;0.30;0.30;;;8.90;99.90;;;;;;5041199;28;20211;-71
2020/12/21 11:55:36;;;;;;;0.30;0.20;;;8.90;99.90;;;;;;5044331;28;20527;-74
2020/12/21 11:58:02;;;;;;;1.58;0.55;;;8.90;99.90;;;;;;5016221;28;20236;-75
2020/12/21 12:00:28;;;;;;;0.37;0.37;;;8.90;99.90;;;;;;5030977;28;20174;-73
2020/12/21 12:02:54;;;;;;;0.30;0.30;;;8.90;99.90;;;;;;5031548;28;20814;-73
2020/12/21 12:05:19;;;;;;;0.30;0.20;;;9.00;99.90;;;;;;5031377;28;20184;-74
2020/12/21 12:07:45;;;;;;;0.47;0.47;;;9.00;99.90;;;;;;5032553;28;20189;-72
2020/12/21 12:10:11;;;;;;;0.30;0.30;;;9.00;99.90;;;;;;5035795;28;20170;-71
2020/12/21 12:12:36;;;;;;;0.40;0.40;;;9.00;99.90;;;;;;5031804;28;20209;-70
2020/12/21 12:15:03;;;;;;;0.30;0.30;;;9.10;99.90;;;;;;5032087;28;20182;-70
2020/12/21 12:17:31;;;;;;;0.30;0.20;;;9.10;99.90;;;;;;5032608;28;20174;-73
2020/12/21 12:19:57;;;;;;;0.30;0.30;;;9.20;99.90;;;;;;5014147;28;20688;-70
2020/12/21 12:22:22;;;;;;;0.30;0.30;;;9.20;99.90;;;;;;5030926;28;20300;-72
2020/12/21 12:24:48;;;;;;;0.30;0.30;;;9.20;99.90;;;;;;5030703;28;20259;-71
2020/12/21 12:27:14;;;;;;;0.40;0.40;;;9.20;99.90;;;;;;5032166;28;20172;-71
2020/12/21 12:29:39;;;;;;;0.63;0.50;;;9.30;99.90;;;;;;5031668;28;20659;-70
2020/12/21 12:32:05;;;;;;;0.30;0.30;;;9.30;99.90;;;;;;5032422;28;20271;-69
2020/12/21 12:34:31;;;;;;;0.30;0.30;;;9.30;99.90;;;;;;5031825;28;20221;-69
2020/12/21 12:36:56;;;;;;;0.73;0.73;;;9.40;99.90;;;;;;5031001;28;20181;-70
2020/12/21 12:39:22;;;;;;;0.30;0.30;;;9.40;99.90;;;;;;5029938;28;20189;-70
2020/12/21 12:41:47;;;;;;;0.63;0.63;;;9.40;99.90;;;;;;5031210;28;20216;-69
2020/12/21 12:44:13;;;;;;;0.40;0.40;;;9.50;99.90;;;;;;5031383;28;20174;-70
2020/12/21 12:46:39;;;;;;;0.30;0.30;;;9.60;99.90;;;;;;5031978;28;20656;-70
2020/12/21 12:49:07;;;;;;;0.30;0.30;;;9.60;99.90;;;;;;5031681;28;20170;-68
2020/12/21 12:51:34;;;;;;;0.30;0.30;;;9.60;99.90;;;;;;5031514;28;20903;-69
2020/12/21 12:53:59;;;;;;;0.30;0.20;;;9.70;99.90;;;;;;5009261;28;636125;-70
2020/12/21 12:56:26;;;;;;;1.37;1.07;;;9.80;99.90;;;;;;5033105;28;20178;-69
2020/12/21 12:58:52;;;;;;;0.30;0.20;;;9.80;99.90;;;;;;5033038;28;20692;-70